AirNav   Air Wisconsin pilot careers
 
 1164 users online  

7CO6 Vantage View Airport
Rush, Colorado, USA

GOING TO RUSH?


FAA INFORMATION EFFECTIVE 21 JUNE 2018

Location

FAA Identifier: 7CO6
Lat/Long: 38-45-37.0000N / 104-06-05.0000W
38-45.616667N / 104-06.083333W
38.7602778 / -104.1013889
(estimated)
Elevation: 5780 ft. / 1762 m (estimated)
From city: 5 miles S of RUSH, CO
Time zone: UTC -6 (UTC -7 during Standard Time)
Zip code: 80864

Airport Operations

Airport use: Private use. Permission required prior to landing
Activation date: 08/2009
Control tower: no
ARTCC: DENVER CENTER
FSS: DENVER FLIGHT SERVICE STATION
Attendance: UNATNDD
Segmented circle: no

Airport Communications

WX ASOS at CO90 (9 nm W): 125.0 (719-637-9696)

Nearby radio navigation aids

VOR radial/distance  VOR name  Freq  Var
HGOr254/22.7HUGO VOR/DME112.1007E
BRKr106/27.2BLACK FOREST VOR/DME112.5008E
FCSr069/31.1BUTTS VOR/DME108.8012E
PUBr021/31.9PUEBLO VORTAC116.7008E

 
NDB name  Hdg/Dist  Freq  Var  ID
IRONHORSE069/30.933512EIHS .. .... ...

Airport Services

Runway Information

Runway 17/35

Dimensions: 2200 x 75 ft. / 671 x 23 m
Surface: turf
RUNWAY 17  RUNWAY 35
Traffic pattern: leftleft

Airport Ownership and Management from official FAA records

Ownership: Privately-owned
Owner: SAM DUPRE
18205 GRAY MARE LANE
PEYTON, CO 80831
Phone 719-362-3349
Manager: SAM DUPRE
18205 GRAY MARE LANE
PEYTON, CO 80831
Phone 719-362-3349

Additional Remarks

OWNER DESIRES ARPT NOT BE CHARTED.

Instrument Procedures

There are no published instrument procedures at 7CO6.

Some nearby airports with instrument procedures:

KCOS - City of Colorado Springs Municipal Airport (28 nm W)
KPUB - Pueblo Memorial Airport (34 nm SW)
KLHX - La Junta Municipal Airport (51 nm SE)
1V6 - Fremont County Airport (51 nm SW)
KAPA - Centennial Airport (60 nm NW)
 
Loc | Ops | Rwys | IFR | FBO | Links
Com | Nav | Svcs | Stats | Notes

AirNav Hotels Sweepstakes
 
Aerial photo
No photo
 
Sectional chart

 
Airport distance calculator
Flying to Vantage View Airport? Find the distance to fly.

From to 7CO6

Sunrise and sunset
Times for 22-Jun-2018
 Local
(UTC-6)
 Zulu
(UTC)
Morning civil twilight05:0111:01
Sunrise05:3311:33
Sunset20:2402:24
Evening civil twilight20:5602:56

Current date and time
Zulu (UTC)  22-Jun-2018 13:02:03
Local (UTC-6)  22-Jun-2018 07:02:03
 
METAR
KFLY 
25nm NW 
221255Z AUTO 15005KT 10SM OVC015 13/08 A3018 RMK AO2 T01300083
KCOS 
29nm W 
221254Z 13007KT 10SM BKN021 OVC025 16/09 A3014 RMK AO2 SLP123 T01560089
KFCS 
32nm W 
221256Z AUTO 11006KT 10SM OVC025 16/09 A3011 RMK AO2 SLP136 T01600090 $
KPUB 
34nm SW 
221253Z 08006KT 10SM OVC030 18/11 A3005 RMK AO2 SLP104 T01830106
KAFF 
36nm W 
221245Z 17007KT 10SM FEW012 BKN021 15/09 A3014 RMK AO2A SLP120
KLIC 
37nm NE 
221255Z AUTO 18008KT 10SM CLR 14/11 A3008 RMK AO2 SLP115 T01440106
KMNH 
37nm NW 
221248Z AUTO 19013KT 10SM BKN016 13/08 A3018 RMK AO2
TAF
KCOS 
29nm W 
221123Z 2212/2312 14007KT P6SM BKN020 FM221600 16008KT P6SM FEW030 SCT060 SCT140 FM221900 16012KT P6SM VCTS SCT060CB BKN140 TEMPO 2219/2223 VRB20G40KT TSRA BKN050CB FM222300 35015G25KT P6SM SCT100 SCT250 FM230300 35008KT P6SM FEW200
KFCS 
32nm W 
220909Z 2209/2311 18009KT 9999 SKC QNH2997INS BECMG 2217/2218 04012KT 9999 FEW130 QNH2988INS TEMPO 2219/2223 VRB20G35KT VCTS BKN120CB BECMG 2300/2301 15009KT 9999 FEW150 QNH2992INS TX33/2221Z TN12/2212Z
KPUB 
34nm SW 
221123Z 2212/2312 08007KT P6SM OVC030 FM221600 09007KT P6SM SCT030 SCT150 FM221900 07012KT P6SM SCT070 BKN150 FM222000 04012KT P6SM VCTS SCT070CB BKN150 TEMPO 2220/2223 VRB20G40KT BKN070CB FM222300 05014G24KT P6SM SCT110 SCT250 FM230200 01008KT P6SM FEW200
KAFF 
36nm W 
221105Z 2211/2317 17009KT 9999 SCT008 OVC020 QNH3009INS BECMG 2212/2213 17009KT 9999 SCT008 OVC015 QNH3008INS BECMG 2214/2215 17009KT 9999 SCT008 BKN020 QNH3006INS BECMG 2215/2216 17009KT 9999 SCT020 SCT080 QNH3001INS BECMG 2217/2218 21012G20KT 9999 VCTS SCT020 BKN080CB QNH3000INS WND 140V230 TEMPO 2219/2223 VRB30G45KT 8000 TSRAGR SCT020 BKN050CB BECMG 2223/2224 06009KT 9999 VCSH SCT100 QNH3002INS BECMG 2302/2303 33009KT 9999 NSW FEW120 SCT150 QNH3007INS BECMG 2314/2315 16009KT 9999 FEW180 QNH30
NOTAMs
Click for the latest NOTAMs
NOTAMs are issued by the DoD/FAA and will open in a separate window not controlled by AirNav.

 

 
 

Would you like to see your business listed on this page?

 If your business provides an interesting product or service to pilots, flight crews, aircraft, or users of the Vantage View Airport, you should consider listing it here.  To start the listing process, click on the button below
 
Add a business
 

Other Pages about Vantage View Airport

Update a link
 
Copyright © AirNav, LLC. All rights reserved. Privacy Policy  Contact